createdAt,value
2018-04-06T00:00:04.210Z,3.77
2018-04-06T00:03:08.346Z,3.00
2018-04-06T00:06:11.706Z,3.27
2018-04-06T00:09:15.203Z,3.00
2018-04-06T00:12:19.354Z,2.93
2018-04-06T00:15:22.716Z,3.67
2018-04-06T00:18:26.833Z,2.97
2018-04-06T00:21:30.194Z,3.50
2018-04-06T00:24:33.577Z,3.50
2018-04-06T00:27:36.927Z,2.77
2018-04-06T00:30:41.783Z,2.73
2018-04-06T00:33:46.017Z,3.17
2018-04-06T00:36:49.385Z,3.43
2018-04-06T00:39:52.742Z,2.93
2018-04-06T00:42:56.108Z,3.40
2018-04-06T00:46:00.272Z,3.80
2018-04-06T00:49:03.728Z,2.97
2018-04-06T00:52:07.855Z,4.20
2018-04-06T00:55:11.205Z,4.30
2018-04-06T00:58:14.560Z,3.50
2018-04-06T01:01:17.957Z,4.03
2018-04-06T01:04:21.308Z,3.90
2018-04-06T01:07:24.666Z,3.80
2018-04-06T01:10:28.022Z,3.63
2018-04-06T01:13:31.374Z,4.33
2018-04-06T01:16:34.720Z,3.80
2018-04-06T01:19:38.860Z,3.50
2018-04-06T01:22:42.236Z,4.30
2018-04-06T01:25:46.358Z,3.90
2018-04-06T01:28:50.477Z,4.47
2018-04-06T01:31:54.616Z,4.60
2018-04-06T01:34:58.021Z,3.33
2018-04-06T01:38:01.377Z,4.07
2018-04-06T01:41:04.724Z,4.00
2018-04-06T01:44:08.085Z,4.37
2018-04-06T01:47:12.226Z,4.13
2018-04-06T01:50:15.732Z,4.47
2018-04-06T01:53:19.076Z,3.93
2018-04-06T01:56:22.441Z,4.23
2018-04-06T01:59:25.865Z,4.43
2018-04-06T02:02:29.236Z,4.10
2018-04-06T02:05:32.593Z,5.27
2018-04-06T02:08:36.772Z,4.30
2018-04-06T02:11:40.131Z,3.73
2018-04-06T02:14:44.246Z,4.57
2018-04-06T02:17:48.362Z,4.40
2018-04-06T02:20:52.515Z,4.57
2018-04-06T02:23:55.901Z,4.33
2018-04-06T02:26:59.253Z,4.37
2018-04-06T02:30:02.599Z,4.10
2018-04-06T02:33:05.965Z,3.50
2018-04-06T02:36:10.094Z,4.13
2018-04-06T02:39:14.282Z,3.37
2018-04-06T02:42:17.790Z,4.73
2018-04-06T02:45:21.220Z,4.00
2018-04-06T02:48:24.669Z,3.53
2018-04-06T02:51:28.047Z,3.17
2018-04-06T02:54:31.398Z,3.30
2018-04-06T02:57:35.526Z,3.37
2018-04-06T03:00:39.858Z,4.43
2018-04-06T03:03:43.214Z,3.77
2018-04-06T03:06:48.073Z,3.20
2018-04-06T03:09:52.179Z,3.23
2018-04-06T03:12:55.529Z,4.13
2018-04-06T03:15:58.874Z,2.53
2018-04-06T03:19:02.231Z,3.03
2018-04-06T03:22:05.582Z,3.00
2018-04-06T03:25:09.697Z,2.13
2018-04-06T03:28:13.973Z,2.50
2018-04-06T03:31:17.331Z,2.87
2018-04-06T03:34:20.692Z,3.77
2018-04-06T03:37:25.570Z,3.97
2018-04-06T03:40:28.969Z,3.13
2018-04-06T03:43:32.369Z,2.77
2018-04-06T03:46:35.937Z,3.23
2018-04-06T03:49:40.801Z,3.43
2018-04-06T03:52:44.157Z,3.07
2018-04-06T03:55:47.739Z,2.67
2018-04-06T03:58:51.084Z,3.33
2018-04-06T04:01:55.203Z,3.73
2018-04-06T04:04:59.332Z,2.50
2018-04-06T04:08:03.447Z,2.77
2018-04-06T04:11:07.749Z,3.63
2018-04-06T04:14:11.104Z,3.37
2018-04-06T04:17:14.459Z,3.13
2018-04-06T04:20:18.600Z,2.90
2018-04-06T04:23:22.097Z,3.53
2018-04-06T04:26:25.450Z,3.10
2018-04-06T04:29:29.593Z,3.47
2018-04-06T04:32:33.721Z,2.93
2018-04-06T04:35:37.833Z,3.37
2018-04-06T04:38:41.942Z,3.07
2018-04-06T04:41:46.069Z,2.93
2018-04-06T04:44:50.206Z,3.63
2018-04-06T04:47:53.569Z,4.17
2018-04-06T04:50:57.682Z,3.93
2018-04-06T04:54:01.055Z,4.30
2018-04-06T04:57:04.424Z,3.53
2018-04-06T05:00:07.789Z,4.83
2018-04-06T05:03:11.919Z,4.43
2018-04-06T05:06:15.278Z,3.50
2018-04-06T05:09:20.329Z,3.97
2018-04-06T05:12:23.692Z,3.50
2018-04-06T05:15:27.063Z,3.27
2018-04-06T05:18:30.421Z,4.13
2018-04-06T05:21:33.800Z,3.60
2018-04-06T05:24:37.211Z,2.87
2018-04-06T05:27:40.523Z,3.43
2018-04-06T05:30:43.899Z,3.93
2018-04-06T05:33:47.254Z,3.33
2018-04-06T05:36:50.617Z,2.97
2018-04-06T05:39:53.981Z,3.27
2018-04-06T05:42:57.381Z,3.40
2018-04-06T05:46:00.739Z,2.57
2018-04-06T05:49:04.842Z,4.23
2018-04-06T05:52:08.964Z,3.07
2018-04-06T05:55:13.091Z,2.97
2018-04-06T05:58:17.220Z,2.60
2018-04-06T06:01:20.580Z,3.37
2018-04-06T06:04:25.466Z,3.00
2018-04-06T06:07:28.804Z,3.57
2018-04-06T06:10:32.170Z,2.90
2018-04-06T06:13:35.544Z,3.27
2018-04-06T06:16:38.903Z,2.90
2018-04-06T06:19:42.265Z,3.40
2018-04-06T06:22:46.403Z,3.57
2018-04-06T06:25:49.764Z,3.27
2018-04-06T06:28:53.150Z,3.10
2018-04-06T06:31:56.523Z,3.03
2018-04-06T06:34:59.887Z,2.67
2018-04-06T06:38:03.248Z,3.10
2018-04-06T06:41:06.747Z,3.13
2018-04-06T06:44:10.898Z,3.20
2018-04-06T06:47:14.544Z,2.77
2018-04-06T06:50:17.975Z,3.87
2018-04-06T06:53:21.487Z,2.80
2018-04-06T06:56:24.856Z,3.03
2018-04-06T06:59:28.982Z,2.60
2018-04-06T07:02:33.126Z,2.47
2018-04-06T07:05:36.496Z,2.30
2018-04-06T07:08:40.613Z,2.97
2018-04-06T07:11:44.746Z,2.60
2018-04-06T07:14:48.151Z,2.30
2018-04-06T07:17:51.513Z,3.07
2018-04-06T07:20:54.919Z,2.47
2018-04-06T07:23:59.070Z,2.80
2018-04-06T07:27:02.422Z,2.17
2018-04-06T07:30:05.806Z,2.87
2018-04-06T07:33:09.170Z,2.40
2018-04-06T07:36:12.592Z,2.37
2018-04-06T07:39:16.088Z,2.97
2018-04-06T07:42:19.436Z,2.20
2018-04-06T07:45:23.570Z,2.07
2018-04-06T07:48:26.930Z,2.83
2018-04-06T07:51:31.854Z,2.37
2018-04-06T07:54:35.284Z,2.50
2018-04-06T07:57:39.427Z,3.10
2018-04-06T08:00:42.799Z,2.43
2018-04-06T08:03:46.158Z,2.90
2018-04-06T08:06:49.518Z,2.20
2018-04-06T08:09:52.952Z,2.37
2018-04-06T08:12:56.346Z,2.67
2018-04-06T08:15:59.767Z,2.43
2018-04-06T08:19:03.133Z,2.80
2018-04-06T08:22:06.514Z,2.23
2018-04-06T08:25:09.914Z,2.40
2018-04-06T08:28:13.281Z,2.00
2018-04-06T08:31:17.393Z,2.47
2018-04-06T08:34:20.758Z,1.93
2018-04-06T08:37:24.127Z,2.20
2018-04-06T08:40:27.497Z,1.90
2018-04-06T08:43:30.874Z,2.13
2018-04-06T08:46:34.237Z,1.83
2018-04-06T08:49:37.589Z,2.00
2018-04-06T08:52:40.929Z,1.70
2018-04-06T08:55:44.295Z,1.60
2018-04-06T08:58:48.515Z,1.70
2018-04-06T09:01:51.899Z,1.57
2018-04-06T09:04:55.285Z,1.50
2018-04-06T09:07:58.648Z,2.17
2018-04-06T09:11:02.036Z,1.23
2018-04-06T09:14:05.465Z,1.50
2018-04-06T09:17:08.835Z,1.33
2018-04-06T09:20:12.213Z,1.50
2018-04-06T09:23:15.635Z,1.07
2018-04-06T09:26:19.816Z,1.37
2018-04-06T09:29:23.929Z,1.17
2018-04-06T09:32:27.347Z,1.83
2018-04-06T09:35:31.456Z,1.17
2018-04-06T09:38:34.811Z,1.23
2018-04-06T09:41:38.397Z,1.43
2018-04-06T09:44:41.755Z,1.67
2018-04-06T09:47:45.192Z,1.37
2018-04-06T09:50:48.550Z,1.37
2018-04-06T09:53:51.908Z,1.03
2018-04-06T09:56:55.256Z,1.30
2018-04-06T09:59:59.412Z,1.27
2018-04-06T10:03:03.715Z,1.53
2018-04-06T10:06:07.097Z,1.77
2018-04-06T10:09:10.518Z,1.33
2018-04-06T10:12:14.020Z,1.60
2018-04-06T10:15:18.164Z,1.40
2018-04-06T10:18:21.514Z,1.40
2018-04-06T10:21:24.921Z,1.70
2018-04-06T10:24:29.107Z,1.63
2018-04-06T10:27:32.605Z,1.50
2018-04-06T10:30:35.973Z,1.33
2018-04-06T10:33:39.358Z,0.90
2018-04-06T10:36:42.855Z,1.20
2018-04-06T10:39:46.989Z,1.17
2018-04-06T10:42:50.381Z,1.27
2018-04-06T10:45:53.866Z,1.03
2018-04-06T10:48:58.019Z,1.10
2018-04-06T10:52:01.361Z,1.50
2018-04-06T10:55:04.750Z,0.90
2018-04-06T10:58:08.151Z,1.00
2018-04-06T11:01:11.594Z,1.10
2018-04-06T11:04:14.959Z,1.17
2018-04-06T11:07:18.348Z,1.00
2018-04-06T11:10:21.816Z,1.00
2018-04-06T11:13:25.240Z,1.23
2018-04-06T11:16:28.714Z,1.20
2018-04-06T11:19:32.222Z,1.17
2018-04-06T11:22:35.591Z,1.30
2018-04-06T11:25:39.729Z,1.00
2018-04-06T11:28:43.111Z,1.27
2018-04-06T11:31:47.246Z,1.33
2018-04-06T11:34:50.609Z,1.00
2018-04-06T11:37:55.579Z,1.10
2018-04-06T11:40:58.990Z,1.53
2018-04-06T11:44:02.445Z,1.30
2018-04-06T11:47:06.663Z,1.53
2018-04-06T11:50:10.799Z,1.20
2018-04-06T11:53:14.406Z,1.13
2018-04-06T11:56:17.776Z,1.27
2018-04-06T11:59:21.194Z,1.37
2018-04-06T12:02:25.357Z,1.37
2018-04-06T12:05:28.822Z,1.20
2018-04-06T12:08:32.191Z,1.20
2018-04-06T12:11:35.629Z,1.60
2018-04-06T12:14:39.130Z,0.90
2018-04-06T12:17:42.493Z,1.17
2018-04-06T12:20:45.858Z,1.00
2018-04-06T12:23:49.238Z,1.33
2018-04-06T12:26:52.610Z,1.10
2018-04-06T12:29:56.746Z,0.97
2018-04-06T12:33:00.115Z,1.40
2018-04-06T12:36:04.241Z,1.00
2018-04-06T12:39:07.609Z,1.20
2018-04-06T12:42:11.001Z,1.30
2018-04-06T12:45:14.384Z,1.50
2018-04-06T12:48:17.761Z,1.30
2018-04-06T12:51:21.139Z,1.37
2018-04-06T12:54:25.294Z,1.17
2018-04-06T12:57:28.700Z,1.30
2018-04-06T13:00:32.065Z,1.30
2018-04-06T13:03:36.406Z,1.10
2018-04-06T13:06:39.753Z,1.53
2018-04-06T13:09:43.099Z,1.13
2018-04-06T13:12:46.536Z,1.00
2018-04-06T13:15:49.968Z,1.07
2018-04-06T13:18:54.111Z,1.10
2018-04-06T13:21:57.499Z,1.50
2018-04-06T13:25:01.621Z,1.10
2018-04-06T13:28:05.011Z,1.23
2018-04-06T13:31:09.179Z,1.40
2018-04-06T13:34:12.657Z,1.10
2018-04-06T13:37:16.036Z,1.33
2018-04-06T13:40:20.179Z,1.03
2018-04-06T13:43:23.559Z,1.00
2018-04-06T13:46:26.918Z,0.97
2018-04-06T13:49:30.295Z,2.07
2018-04-06T13:52:33.672Z,1.20
2018-04-06T13:55:37.065Z,1.23
2018-04-06T13:58:40.434Z,1.10
2018-04-06T14:01:44.567Z,1.30
2018-04-06T14:04:47.925Z,1.67
2018-04-06T14:07:51.286Z,1.50
2018-04-06T14:10:54.655Z,1.50
2018-04-06T14:13:58.796Z,1.80
2018-04-06T14:17:02.209Z,1.50
2018-04-06T14:20:05.630Z,1.60
2018-04-06T14:23:09.027Z,1.20
2018-04-06T14:26:12.390Z,1.80
2018-04-06T14:29:15.750Z,1.30
2018-04-06T14:32:19.114Z,1.60
2018-04-06T14:35:22.491Z,1.40
2018-04-06T14:38:25.952Z,1.40
2018-04-06T14:41:29.322Z,1.57
2018-04-06T14:44:32.679Z,1.57
2018-04-06T14:47:36.044Z,1.30
2018-04-06T14:50:39.493Z,1.40
2018-04-06T14:53:42.880Z,1.60
2018-04-06T14:56:46.276Z,1.40
2018-04-06T14:59:49.642Z,1.80
2018-04-06T15:02:53.070Z,1.60
2018-04-06T15:05:57.221Z,3.20
2018-04-06T15:09:00.684Z,2.67
2018-04-06T15:12:04.066Z,1.80
2018-04-06T15:15:07.454Z,1.60
2018-04-06T15:18:10.882Z,1.27
2018-04-06T15:21:15.157Z,1.50
2018-04-06T15:24:18.609Z,1.30
2018-04-06T15:27:22.096Z,1.50
2018-04-06T15:30:26.339Z,1.67
2018-04-06T15:33:29.698Z,1.53
2018-04-06T15:36:33.073Z,1.77
2018-04-06T15:39:36.473Z,1.63
2018-04-06T15:42:39.827Z,1.57
2018-04-06T15:45:44.155Z,1.87
2018-04-06T15:48:47.532Z,1.87
2018-04-06T15:51:51.675Z,2.00
2018-04-06T15:54:55.099Z,1.87
2018-04-06T15:57:58.482Z,1.70
2018-04-06T16:01:01.875Z,2.00
2018-04-06T16:04:05.309Z,1.70
2018-04-06T16:07:08.693Z,1.70
2018-04-06T16:10:12.202Z,2.10
2018-04-06T16:13:15.577Z,1.90
2018-04-06T16:16:18.940Z,1.60
2018-04-06T16:19:23.082Z,2.20
2018-04-06T16:22:26.438Z,1.87
2018-04-06T16:25:29.819Z,1.90
2018-04-06T16:28:33.189Z,2.00
2018-04-06T16:31:36.642Z,1.83
2018-04-06T16:34:40.028Z,3.07
2018-04-06T16:37:43.402Z,2.07
2018-04-06T16:40:46.786Z,2.40
2018-04-06T16:43:50.138Z,2.40
2018-04-06T16:46:53.535Z,2.83
2018-04-06T16:49:56.915Z,2.37
2018-04-06T16:53:00.300Z,2.43
2018-04-06T16:56:03.662Z,2.70
2018-04-06T16:59:07.807Z,2.17
2018-04-06T17:02:11.231Z,2.10
2018-04-06T17:05:14.620Z,2.40
2018-04-06T17:08:18.009Z,3.03
2018-04-06T17:11:21.466Z,2.63
2018-04-06T17:14:24.920Z,2.87
2018-04-06T17:17:28.300Z,2.23
2018-04-06T17:20:31.670Z,3.70
2018-04-06T17:23:35.828Z,2.50
2018-04-06T17:26:39.203Z,2.60
2018-04-06T17:29:42.694Z,3.07
2018-04-06T17:32:46.955Z,2.90
2018-04-06T17:35:50.322Z,2.77
2018-04-06T17:38:54.539Z,3.40
2018-04-06T17:41:58.674Z,3.03
2018-04-06T17:45:02.054Z,3.80
2018-04-06T17:48:06.229Z,3.80
2018-04-06T17:51:09.604Z,5.30
2018-04-06T17:54:12.982Z,3.63
2018-04-06T17:57:16.428Z,3.60
2018-04-06T18:00:19.788Z,3.83
2018-04-06T18:03:23.165Z,3.10
2018-04-06T18:06:27.315Z,3.63
2018-04-06T18:09:30.696Z,4.80
2018-04-06T18:12:34.069Z,2.60
2018-04-06T18:15:37.428Z,2.97
2018-04-06T18:18:40.788Z,2.90
2018-04-06T18:21:44.926Z,3.33
2018-04-06T18:24:48.396Z,3.30
2018-04-06T18:27:52.598Z,6.60
2018-04-06T18:30:55.950Z,3.30
2018-04-06T18:34:00.102Z,3.00
2018-04-06T18:37:05.009Z,3.20
2018-04-06T18:40:08.425Z,3.43
2018-04-06T18:43:11.799Z,3.27
2018-04-06T18:46:15.166Z,3.00
2018-04-06T18:49:19.306Z,3.23
2018-04-06T18:52:22.704Z,3.07
2018-04-06T18:55:26.056Z,3.20
2018-04-06T18:58:29.491Z,2.90
2018-04-06T19:01:32.827Z,2.67
2018-04-06T19:04:36.222Z,2.60
2018-04-06T19:07:38.869Z,2.80
2018-04-06T19:10:43.110Z,3.03
2018-04-06T19:13:46.491Z,3.20
2018-04-06T19:16:49.895Z,3.07
2018-04-06T19:19:53.266Z,3.27
2018-04-06T19:22:56.632Z,3.10
2018-04-06T19:26:00.110Z,3.33
2018-04-06T19:29:03.515Z,3.43
2018-04-06T19:32:06.883Z,3.20
2018-04-06T19:35:11.009Z,3.30
2018-04-06T19:38:14.382Z,3.27
2018-04-06T19:41:17.807Z,3.57
2018-04-06T19:44:21.183Z,3.63
2018-04-06T19:47:25.418Z,3.53
2018-04-06T19:50:29.527Z,4.03
2018-04-06T19:53:33.707Z,3.53
2018-04-06T19:56:37.111Z,3.43
2018-04-06T19:59:40.436Z,3.73
2018-04-06T20:02:44.567Z,3.40
2018-04-06T20:05:48.720Z,3.83
2018-04-06T20:08:52.104Z,4.13
2018-04-06T20:11:55.524Z,4.00
2018-04-06T20:14:58.877Z,3.30
2018-04-06T20:18:03.001Z,3.40
2018-04-06T20:21:07.132Z,3.60
2018-04-06T20:24:10.494Z,3.37
2018-04-06T20:27:13.941Z,3.50
2018-04-06T20:30:17.318Z,3.87
2018-04-06T20:33:21.438Z,3.03
2018-04-06T20:36:24.912Z,3.70
2018-04-06T20:39:28.282Z,3.43
2018-04-06T20:42:30.913Z,3.27
2018-04-06T20:45:35.139Z,3.30
2018-04-06T20:48:38.532Z,3.53
2018-04-06T20:51:42.676Z,3.33
2018-04-06T20:54:46.063Z,3.27
2018-04-06T20:57:49.435Z,3.40
2018-04-06T21:00:52.827Z,3.30
2018-04-06T21:03:56.381Z,3.50
2018-04-06T21:06:59.744Z,3.57
2018-04-06T21:10:03.863Z,3.70
2018-04-06T21:13:07.990Z,4.20
2018-04-06T21:16:11.350Z,3.57
2018-04-06T21:19:14.753Z,3.90
2018-04-06T21:22:18.159Z,4.03
2018-04-06T21:25:21.538Z,4.27
2018-04-06T21:28:24.902Z,4.33
2018-04-06T21:31:28.271Z,4.20
2018-04-06T21:34:32.416Z,3.60
2018-04-06T21:37:35.797Z,3.70
2018-04-06T21:40:39.895Z,3.80
2018-04-06T21:43:43.320Z,3.77
2018-04-06T21:46:46.691Z,3.33
2018-04-06T21:49:50.066Z,3.37
2018-04-06T21:52:53.516Z,2.90
2018-04-06T21:55:56.157Z,2.80
2018-04-06T21:59:00.284Z,3.00
2018-04-06T22:02:03.642Z,2.73
2018-04-06T22:05:07.371Z,2.57
2018-04-06T22:08:10.767Z,2.77
2018-04-06T22:11:14.200Z,3.20
2018-04-06T22:14:18.387Z,2.57
2018-04-06T22:17:21.753Z,2.37
2018-04-06T22:20:25.155Z,2.80
2018-04-06T22:23:28.521Z,2.30
2018-04-06T22:26:32.741Z,2.20
2018-04-06T22:29:36.898Z,2.67
2018-04-06T22:32:40.292Z,2.17
2018-04-06T22:35:43.650Z,2.30
2018-04-06T22:38:47.078Z,2.50
2018-04-06T22:41:50.464Z,2.23
2018-04-06T22:44:54.598Z,2.10
2018-04-06T22:47:57.966Z,2.27
2018-04-06T22:51:02.100Z,2.07
2018-04-06T22:54:06.242Z,1.97
2018-04-06T22:57:09.603Z,2.50
2018-04-06T23:00:13.718Z,2.20
2018-04-06T23:03:17.840Z,1.87
2018-04-06T23:06:21.992Z,2.00
2018-04-06T23:09:25.390Z,2.10
2018-04-06T23:12:28.775Z,2.00
2018-04-06T23:15:32.181Z,2.70
2018-04-06T23:18:35.589Z,2.23
2018-04-06T23:21:39.148Z,2.50
2018-04-06T23:24:42.507Z,2.00
2018-04-06T23:27:45.871Z,2.20
2018-04-06T23:30:49.221Z,2.40
2018-04-06T23:33:52.565Z,2.33
2018-04-06T23:36:56.925Z,2.67
2018-04-06T23:40:00.291Z,2.00
2018-04-06T23:43:03.641Z,2.20
2018-04-06T23:46:06.993Z,2.57
2018-04-06T23:49:10.342Z,2.90
2018-04-06T23:52:13.720Z,2.23
2018-04-06T23:55:17.074Z,2.13
2018-04-06T23:58:21.209Z,3.07
